sensor_id;sensor_type;location;lat;lon;timestamp;temperature;humidity
42489;DHT22;28118;52.388;9.452;2022-11-30T00:01:04;6.00;99.90
42489;DHT22;28118;52.388;9.452;2022-11-30T00:03:33;6.10;99.90
42489;DHT22;28118;52.388;9.452;2022-11-30T00:06:08;6.10;99.90
42489;DHT22;28118;52.388;9.452;2022-11-30T00:08:36;6.10;99.90
42489;DHT22;28118;52.388;9.452;2022-11-30T00:11:14;6.10;99.90
42489;DHT22;28118;52.388;9.452;2022-11-30T00:13:41;6.10;99.90
42489;DHT22;28118;52.388;9.452;2022-11-30T00:16:08;6.10;99.90
42489;DHT22;28118;52.388;9.452;2022-11-30T00:18:35;6.10;99.90
42489;DHT22;28118;52.388;9.452;2022-11-30T00:21:05;6.10;99.90
42489;DHT22;28118;52.388;9.452;2022-11-30T00:23:35;6.00;99.90
42489;DHT22;28118;52.388;9.452;2022-11-30T00:26:05;6.10;99.90
42489;DHT22;28118;52.388;9.452;2022-11-30T00:28:32;6.10;99.90
42489;DHT22;28118;52.388;9.452;2022-11-30T00:31:04;6.00;99.90
42489;DHT22;28118;52.388;9.452;2022-11-30T00:33:32;6.00;99.90
42489;DHT22;28118;52.388;9.452;2022-11-30T00:36:01;6.00;99.90
42489;DHT22;28118;52.388;9.452;2022-11-30T00:38:28;6.00;99.90
42489;DHT22;28118;52.388;9.452;2022-11-30T00:40:54;6.00;99.90
42489;DHT22;28118;52.388;9.452;2022-11-30T00:43:22;6.00;99.90
42489;DHT22;28118;52.388;9.452;2022-11-30T00:45:49;6.00;99.90
42489;DHT22;28118;52.388;9.452;2022-11-30T00:48:15;6.00;99.90
42489;DHT22;28118;52.388;9.452;2022-11-30T00:50:42;6.10;99.90
42489;DHT22;28118;52.388;9.452;2022-11-30T00:53:09;6.10;99.90
42489;DHT22;28118;52.388;9.452;2022-11-30T00:55:36;6.10;99.90
42489;DHT22;28118;52.388;9.452;2022-11-30T00:58:02;6.00;99.90
42489;DHT22;28118;52.388;9.452;2022-11-30T01:00:29;6.00;99.90
42489;DHT22;28118;52.388;9.452;2022-11-30T01:02:56;6.00;99.90
42489;DHT22;28118;52.388;9.452;2022-11-30T01:05:24;6.00;99.90
42489;DHT22;28118;52.388;9.452;2022-11-30T01:07:51;6.00;99.90
42489;DHT22;28118;52.388;9.452;2022-11-30T01:10:18;6.00;99.90
42489;DHT22;28118;52.388;9.452;2022-11-30T01:12:44;6.00;99.90
42489;DHT22;28118;52.388;9.452;2022-11-30T01:15:11;5.90;99.90
42489;DHT22;28118;52.388;9.452;2022-11-30T01:17:38;6.00;99.90
42489;DHT22;28118;52.388;9.452;2022-11-30T01:20:05;5.90;99.90
42489;DHT22;28118;52.388;9.452;2022-11-30T01:22:33;5.90;99.90
42489;DHT22;28118;52.388;9.452;2022-11-30T01:25:00;5.90;99.90
42489;DHT22;28118;52.388;9.452;2022-11-30T01:27:27;6.00;99.90
42489;DHT22;28118;52.388;9.452;2022-11-30T01:29:54;6.00;99.90
42489;DHT22;28118;52.388;9.452;2022-11-30T01:32:21;6.00;99.90
42489;DHT22;28118;52.388;9.452;2022-11-30T01:34:48;5.90;99.90
42489;DHT22;28118;52.388;9.452;2022-11-30T01:37:15;5.90;99.90
42489;DHT22;28118;52.388;9.452;2022-11-30T01:39:41;5.90;99.90
42489;DHT22;28118;52.388;9.452;2022-11-30T01:42:14;5.90;99.90
42489;DHT22;28118;52.388;9.452;2022-11-30T01:44:51;5.90;99.90
42489;DHT22;28118;52.388;9.452;2022-11-30T01:47:24;5.90;99.90
42489;DHT22;28118;52.388;9.452;2022-11-30T01:49:57;5.90;99.90
42489;DHT22;28118;52.388;9.452;2022-11-30T01:52:30;5.90;99.90
42489;DHT22;28118;52.388;9.452;2022-11-30T01:55:20;5.90;99.90
42489;DHT22;28118;52.388;9.452;2022-11-30T01:57:55;5.90;99.90
42489;DHT22;28118;52.388;9.452;2022-11-30T02:00:23;5.90;99.90
42489;DHT22;28118;52.388;9.452;2022-11-30T02:05:40;5.90;99.90
42489;DHT22;28118;52.388;9.452;2022-11-30T02:08:08;5.80;99.90
42489;DHT22;28118;52.388;9.452;2022-11-30T02:10:38;5.80;99.90
42489;DHT22;28118;52.388;9.452;2022-11-30T02:22:08;5.90;99.90
42489;DHT22;28118;52.388;9.452;2022-11-30T02:30:23;5.80;99.90
42489;DHT22;28118;52.388;9.452;2022-11-30T02:33:04;5.70;99.90
42489;DHT22;28118;52.388;9.452;2022-11-30T02:35:34;5.80;99.90
42489;DHT22;28118;52.388;9.452;2022-11-30T02:38:03;5.80;99.90
42489;DHT22;28118;52.388;9.452;2022-11-30T02:40:30;5.80;99.90
42489;DHT22;28118;52.388;9.452;2022-11-30T02:42:59;5.70;99.90
42489;DHT22;28118;52.388;9.452;2022-11-30T02:48:19;5.80;99.90
42489;DHT22;28118;52.388;9.452;2022-11-30T02:50:56;5.70;99.90
42489;DHT22;28118;52.388;9.452;2022-11-30T02:53:24;5.70;99.90
42489;DHT22;28118;52.388;9.452;2022-11-30T02:55:52;5.80;99.90
42489;DHT22;28118;52.388;9.452;2022-11-30T02:58:20;5.80;99.90
42489;DHT22;28118;52.388;9.452;2022-11-30T03:00:47;5.80;99.90
42489;DHT22;28118;52.388;9.452;2022-11-30T03:03:14;5.80;99.90
42489;DHT22;28118;52.388;9.452;2022-11-30T03:05:40;5.70;99.90
42489;DHT22;28118;52.388;9.452;2022-11-30T03:08:07;5.80;99.90
42489;DHT22;28118;52.388;9.452;2022-11-30T03:10:33;5.80;99.90
42489;DHT22;28118;52.388;9.452;2022-11-30T03:13:00;5.80;99.90
42489;DHT22;28118;52.388;9.452;2022-11-30T03:15:27;5.80;99.90
42489;DHT22;28118;52.388;9.452;2022-11-30T03:17:53;5.90;99.90
42489;DHT22;28118;52.388;9.452;2022-11-30T03:20:20;5.80;99.90
42489;DHT22;28118;52.388;9.452;2022-11-30T03:22:46;5.80;99.90
42489;DHT22;28118;52.388;9.452;2022-11-30T03:25:13;5.80;99.90
42489;DHT22;28118;52.388;9.452;2022-11-30T03:27:40;5.80;99.90
42489;DHT22;28118;52.388;9.452;2022-11-30T03:30:07;5.80;99.90
42489;DHT22;28118;52.388;9.452;2022-11-30T03:32:33;5.80;99.90
42489;DHT22;28118;52.388;9.452;2022-11-30T03:35:00;5.80;99.90
42489;DHT22;28118;52.388;9.452;2022-11-30T03:37:26;5.80;99.90
42489;DHT22;28118;52.388;9.452;2022-11-30T03:39:53;5.80;99.90
42489;DHT22;28118;52.388;9.452;2022-11-30T03:42:24;5.80;99.90
42489;DHT22;28118;52.388;9.452;2022-11-30T03:44:50;5.80;99.90
42489;DHT22;28118;52.388;9.452;2022-11-30T03:47:17;5.80;99.90
42489;DHT22;28118;52.388;9.452;2022-11-30T03:49:43;5.80;99.90
42489;DHT22;28118;52.388;9.452;2022-11-30T03:52:10;5.80;99.90
42489;DHT22;28118;52.388;9.452;2022-11-30T03:54:37;5.80;99.90
42489;DHT22;28118;52.388;9.452;2022-11-30T03:57:03;5.70;99.90
42489;DHT22;28118;52.388;9.452;2022-11-30T03:59:30;5.70;99.90
42489;DHT22;28118;52.388;9.452;2022-11-30T04:01:56;5.70;99.90
42489;DHT22;28118;52.388;9.452;2022-11-30T04:04:23;5.80;99.90
42489;DHT22;28118;52.388;9.452;2022-11-30T04:06:50;5.70;99.90
42489;DHT22;28118;52.388;9.452;2022-11-30T04:09:16;5.70;99.90
42489;DHT22;28118;52.388;9.452;2022-11-30T04:11:43;5.70;99.90
42489;DHT22;28118;52.388;9.452;2022-11-30T04:14:09;5.70;99.90
42489;DHT22;28118;52.388;9.452;2022-11-30T04:16:36;5.80;99.90
42489;DHT22;28118;52.388;9.452;2022-11-30T04:19:03;5.70;99.90
42489;DHT22;28118;52.388;9.452;2022-11-30T04:21:29;5.80;99.90
42489;DHT22;28118;52.388;9.452;2022-11-30T04:23:56;5.70;99.90
42489;DHT22;28118;52.388;9.452;2022-11-30T04:26:23;5.70;99.90
42489;DHT22;28118;52.388;9.452;2022-11-30T04:28:49;5.70;99.90
42489;DHT22;28118;52.388;9.452;2022-11-30T04:31:16;5.70;99.90
42489;DHT22;28118;52.388;9.452;2022-11-30T04:33:42;5.70;99.90
42489;DHT22;28118;52.388;9.452;2022-11-30T04:36:17;5.70;99.90
42489;DHT22;28118;52.388;9.452;2022-11-30T04:38:45;5.70;99.90
42489;DHT22;28118;52.388;9.452;2022-11-30T04:41:12;5.70;99.90
42489;DHT22;28118;52.388;9.452;2022-11-30T04:43:39;5.70;99.90
42489;DHT22;28118;52.388;9.452;2022-11-30T04:46:06;5.70;99.90
42489;DHT22;28118;52.388;9.452;2022-11-30T04:48:33;5.70;99.90
42489;DHT22;28118;52.388;9.452;2022-11-30T04:51:01;5.70;99.90
42489;DHT22;28118;52.388;9.452;2022-11-30T04:53:28;5.70;99.90
42489;DHT22;28118;52.388;9.452;2022-11-30T04:55:54;5.70;99.90
42489;DHT22;28118;52.388;9.452;2022-11-30T04:58:21;5.70;99.90
42489;DHT22;28118;52.388;9.452;2022-11-30T05:00:48;5.70;99.90
42489;DHT22;28118;52.388;9.452;2022-11-30T05:03:14;5.70;99.90
42489;DHT22;28118;52.388;9.452;2022-11-30T05:05:41;5.70;99.90
42489;DHT22;28118;52.388;9.452;2022-11-30T05:08:08;5.70;99.90
42489;DHT22;28118;52.388;9.452;2022-11-30T05:10:34;5.70;99.90
42489;DHT22;28118;52.388;9.452;2022-11-30T05:13:01;5.60;99.90
42489;DHT22;28118;52.388;9.452;2022-11-30T05:15:28;5.60;99.90
42489;DHT22;28118;52.388;9.452;2022-11-30T05:17:57;5.60;99.90
42489;DHT22;28118;52.388;9.452;2022-11-30T05:20:24;5.70;99.90
42489;DHT22;28118;52.388;9.452;2022-11-30T05:22:51;5.60;99.90
42489;DHT22;28118;52.388;9.452;2022-11-30T05:25:17;5.60;99.90
42489;DHT22;28118;52.388;9.452;2022-11-30T05:27:44;5.60;99.90
42489;DHT22;28118;52.388;9.452;2022-11-30T05:30:11;5.70;99.90
42489;DHT22;28118;52.388;9.452;2022-11-30T05:32:38;5.60;99.90
42489;DHT22;28118;52.388;9.452;2022-11-30T05:35:05;5.70;99.90
42489;DHT22;28118;52.388;9.452;2022-11-30T05:37:31;5.70;99.90
42489;DHT22;28118;52.388;9.452;2022-11-30T05:39:58;5.60;99.90
42489;DHT22;28118;52.388;9.452;2022-11-30T05:42:25;5.70;99.90
42489;DHT22;28118;52.388;9.452;2022-11-30T05:44:52;5.60;99.90
42489;DHT22;28118;52.388;9.452;2022-11-30T05:47:18;5.60;99.90
42489;DHT22;28118;52.388;9.452;2022-11-30T05:49:45;5.60;99.90
42489;DHT22;28118;52.388;9.452;2022-11-30T05:52:12;5.70;99.90
42489;DHT22;28118;52.388;9.452;2022-11-30T05:54:38;5.70;99.90
42489;DHT22;28118;52.388;9.452;2022-11-30T05:57:05;5.70;99.90
42489;DHT22;28118;52.388;9.452;2022-11-30T05:59:32;5.70;99.90
42489;DHT22;28118;52.388;9.452;2022-11-30T06:01:58;5.70;99.90
42489;DHT22;28118;52.388;9.452;2022-11-30T06:04:25;5.70;99.90
42489;DHT22;28118;52.388;9.452;2022-11-30T06:06:53;5.60;99.90
42489;DHT22;28118;52.388;9.452;2022-11-30T06:09:21;5.60;99.90
42489;DHT22;28118;52.388;9.452;2022-11-30T06:11:48;5.70;99.90
42489;DHT22;28118;52.388;9.452;2022-11-30T06:14:14;5.60;99.90
42489;DHT22;28118;52.388;9.452;2022-11-30T06:16:41;5.60;99.90
42489;DHT22;28118;52.388;9.452;2022-11-30T06:19:08;5.60;99.90
42489;DHT22;28118;52.388;9.452;2022-11-30T06:21:34;5.60;99.90
42489;DHT22;28118;52.388;9.452;2022-11-30T06:24:01;5.60;99.90
42489;DHT22;28118;52.388;9.452;2022-11-30T06:26:28;5.60;99.90
42489;DHT22;28118;52.388;9.452;2022-11-30T06:28:54;5.60;99.90
42489;DHT22;28118;52.388;9.452;2022-11-30T06:31:21;5.70;99.90
42489;DHT22;28118;52.388;9.452;2022-11-30T06:33:48;5.60;99.90
42489;DHT22;28118;52.388;9.452;2022-11-30T06:36:20;5.60;99.90
42489;DHT22;28118;52.388;9.452;2022-11-30T06:38:48;5.60;99.90
42489;DHT22;28118;52.388;9.452;2022-11-30T06:41:16;5.60;99.90
42489;DHT22;28118;52.388;9.452;2022-11-30T06:43:42;5.60;99.90
42489;DHT22;28118;52.388;9.452;2022-11-30T06:46:09;5.60;99.90
42489;DHT22;28118;52.388;9.452;2022-11-30T06:48:36;5.60;99.90
42489;DHT22;28118;52.388;9.452;2022-11-30T06:51:07;5.60;99.90
42489;DHT22;28118;52.388;9.452;2022-11-30T06:53:34;5.60;99.90
42489;DHT22;28118;52.388;9.452;2022-11-30T06:56:05;5.60;99.90
42489;DHT22;28118;52.388;9.452;2022-11-30T06:58:37;5.60;99.90
42489;DHT22;28118;52.388;9.452;2022-11-30T07:01:09;5.60;99.90
42489;DHT22;28118;52.388;9.452;2022-11-30T07:03:37;5.70;99.90
42489;DHT22;28118;52.388;9.452;2022-11-30T07:06:11;5.70;99.90
42489;DHT22;28118;52.388;9.452;2022-11-30T07:08:38;5.70;99.90
42489;DHT22;28118;52.388;9.452;2022-11-30T07:11:06;5.70;99.90
42489;DHT22;28118;52.388;9.452;2022-11-30T07:13:33;5.70;99.90
42489;DHT22;28118;52.388;9.452;2022-11-30T07:16:04;5.70;99.90
42489;DHT22;28118;52.388;9.452;2022-11-30T07:18:55;5.70;99.90
42489;DHT22;28118;52.388;9.452;2022-11-30T07:21:22;5.70;99.90
42489;DHT22;28118;52.388;9.452;2022-11-30T07:23:48;5.70;99.90
42489;DHT22;28118;52.388;9.452;2022-11-30T07:26:34;5.70;99.90
42489;DHT22;28118;52.388;9.452;2022-11-30T07:29:01;5.70;99.90
42489;DHT22;28118;52.388;9.452;2022-11-30T07:31:29;5.70;99.90
42489;DHT22;28118;52.388;9.452;2022-11-30T07:33:58;5.70;99.90
42489;DHT22;28118;52.388;9.452;2022-11-30T07:36:28;5.70;99.90
42489;DHT22;28118;52.388;9.452;2022-11-30T07:38:56;5.80;99.90
42489;DHT22;28118;52.388;9.452;2022-11-30T07:41:23;5.70;99.90
42489;DHT22;28118;52.388;9.452;2022-11-30T07:43:50;5.80;99.90
42489;DHT22;28118;52.388;9.452;2022-11-30T07:46:17;5.80;99.90
42489;DHT22;28118;52.388;9.452;2022-11-30T07:48:45;5.80;99.90
42489;DHT22;28118;52.388;9.452;2022-11-30T07:51:17;5.80;99.90
42489;DHT22;28118;52.388;9.452;2022-11-30T07:53:45;5.80;99.90
42489;DHT22;28118;52.388;9.452;2022-11-30T07:56:14;5.80;99.90
42489;DHT22;28118;52.388;9.452;2022-11-30T07:58:41;5.80;99.90
42489;DHT22;28118;52.388;9.452;2022-11-30T08:01:10;5.80;99.90
42489;DHT22;28118;52.388;9.452;2022-11-30T08:03:37;5.80;99.90
42489;DHT22;28118;52.388;9.452;2022-11-30T08:06:09;5.80;99.90
42489;DHT22;28118;52.388;9.452;2022-11-30T08:08:39;5.80;99.90
42489;DHT22;28118;52.388;9.452;2022-11-30T08:11:07;5.80;99.90
42489;DHT22;28118;52.388;9.452;2022-11-30T08:13:35;5.70;99.90
42489;DHT22;28118;52.388;9.452;2022-11-30T08:16:10;5.70;99.90
42489;DHT22;28118;52.388;9.452;2022-11-30T08:18:38;5.70;99.90
42489;DHT22;28118;52.388;9.452;2022-11-30T08:21:07;5.70;99.90
42489;DHT22;28118;52.388;9.452;2022-11-30T08:23:36;5.70;99.90
42489;DHT22;28118;52.388;9.452;2022-11-30T08:26:09;5.70;99.90
42489;DHT22;28118;52.388;9.452;2022-11-30T08:28:36;5.70;99.90
42489;DHT22;28118;52.388;9.452;2022-11-30T08:31:05;5.70;99.90
42489;DHT22;28118;52.388;9.452;2022-11-30T08:33:33;5.70;99.90
42489;DHT22;28118;52.388;9.452;2022-11-30T08:36:17;5.70;99.90
42489;DHT22;28118;52.388;9.452;2022-11-30T08:38:45;5.70;99.90
42489;DHT22;28118;52.388;9.452;2022-11-30T08:41:14;5.70;99.90
42489;DHT22;28118;52.388;9.452;2022-11-30T08:43:41;5.70;99.90
42489;DHT22;28118;52.388;9.452;2022-11-30T08:46:13;5.70;99.90
42489;DHT22;28118;52.388;9.452;2022-11-30T08:49:00;5.70;99.90
42489;DHT22;28118;52.388;9.452;2022-11-30T08:51:47;5.80;99.90
42489;DHT22;28118;52.388;9.452;2022-11-30T08:54:34;5.80;99.90
42489;DHT22;28118;52.388;9.452;2022-11-30T08:57:00;5.80;99.90
42489;DHT22;28118;52.388;9.452;2022-11-30T08:59:30;5.80;99.90
42489;DHT22;28118;52.388;9.452;2022-11-30T09:01:57;5.80;99.90
42489;DHT22;28118;52.388;9.452;2022-11-30T09:04:24;5.80;99.90
42489;DHT22;28118;52.388;9.452;2022-11-30T09:06:50;5.90;99.90
42489;DHT22;28118;52.388;9.452;2022-11-30T09:09:17;5.90;99.90
42489;DHT22;28118;52.388;9.452;2022-11-30T09:11:44;5.80;99.90
42489;DHT22;28118;52.388;9.452;2022-11-30T09:14:10;5.80;99.90
42489;DHT22;28118;52.388;9.452;2022-11-30T09:16:37;5.90;99.90
42489;DHT22;28118;52.388;9.452;2022-11-30T09:19:04;5.90;99.90
42489;DHT22;28118;52.388;9.452;2022-11-30T09:21:30;5.90;99.90
42489;DHT22;28118;52.388;9.452;2022-11-30T09:23:57;5.90;99.90
42489;DHT22;28118;52.388;9.452;2022-11-30T09:26:24;5.90;99.90
42489;DHT22;28118;52.388;9.452;2022-11-30T09:28:52;5.90;99.90
42489;DHT22;28118;52.388;9.452;2022-11-30T09:31:23;5.90;99.90
42489;DHT22;28118;52.388;9.452;2022-11-30T09:33:51;5.90;99.90
42489;DHT22;28118;52.388;9.452;2022-11-30T09:36:20;5.90;99.90
42489;DHT22;28118;52.388;9.452;2022-11-30T09:38:47;5.90;99.90
42489;DHT22;28118;52.388;9.452;2022-11-30T09:50:02;5.90;99.90
42489;DHT22;28118;52.388;9.452;2022-11-30T09:52:39;5.90;99.90
42489;DHT22;28118;52.388;9.452;2022-11-30T09:55:09;6.00;99.90
42489;DHT22;28118;52.388;9.452;2022-11-30T09:57:47;5.90;99.90
42489;DHT22;28118;52.388;9.452;2022-11-30T10:00:20;6.00;99.90
42489;DHT22;28118;52.388;9.452;2022-11-30T10:02:55;6.00;99.90
42489;DHT22;28118;52.388;9.452;2022-11-30T10:05:45;6.00;99.90
42489;DHT22;28118;52.388;9.452;2022-11-30T10:08:28;6.00;99.90
42489;DHT22;28118;52.388;9.452;2022-11-30T10:20:07;6.00;99.90
42489;DHT22;28118;52.388;9.452;2022-11-30T10:25:22;6.10;99.90
42489;DHT22;28118;52.388;9.452;2022-11-30T10:27:57;6.10;99.90
42489;DHT22;28118;52.388;9.452;2022-11-30T10:30:46;6.10;99.90
42489;DHT22;28118;52.388;9.452;2022-11-30T10:33:18;6.10;99.90
42489;DHT22;28118;52.388;9.452;2022-11-30T10:38:22;6.10;99.90
42489;DHT22;28118;52.388;9.452;2022-11-30T10:41:07;6.20;99.90
42489;DHT22;28118;52.388;9.452;2022-11-30T10:43:50;6.20;99.90
42489;DHT22;28118;52.388;9.452;2022-11-30T10:46:30;6.20;99.90
42489;DHT22;28118;52.388;9.452;2022-11-30T10:49:07;6.20;99.90
42489;DHT22;28118;52.388;9.452;2022-11-30T10:51:38;6.20;99.90
42489;DHT22;28118;52.388;9.452;2022-11-30T10:54:13;6.20;99.90
42489;DHT22;28118;52.388;9.452;2022-11-30T10:56:41;6.20;99.90
42489;DHT22;28118;52.388;9.452;2022-11-30T10:59:15;6.20;99.90
42489;DHT22;28118;52.388;9.452;2022-11-30T11:01:43;6.30;99.90
42489;DHT22;28118;52.388;9.452;2022-11-30T11:04:24;6.20;99.90
42489;DHT22;28118;52.388;9.452;2022-11-30T11:06:57;6.20;99.90
42489;DHT22;28118;52.388;9.452;2022-11-30T11:09:40;6.30;99.90
42489;DHT22;28118;52.388;9.452;2022-11-30T11:12:24;6.30;99.90
42489;DHT22;28118;52.388;9.452;2022-11-30T11:17:35;6.30;99.90
42489;DHT22;28118;52.388;9.452;2022-11-30T11:20:02;6.30;99.90
42489;DHT22;28118;52.388;9.452;2022-11-30T11:22:30;6.30;99.90
42489;DHT22;28118;52.388;9.452;2022-11-30T11:25:24;6.30;99.90
42489;DHT22;28118;52.388;9.452;2022-11-30T11:27:54;6.30;99.90
42489;DHT22;28118;52.388;9.452;2022-11-30T11:38:38;6.30;99.90
42489;DHT22;28118;52.388;9.452;2022-11-30T11:46:37;6.30;99.90
42489;DHT22;28118;52.388;9.452;2022-11-30T11:49:20;6.30;99.90
42489;DHT22;28118;52.388;9.452;2022-11-30T11:52:02;6.30;99.90
42489;DHT22;28118;52.388;9.452;2022-11-30T11:54:36;6.40;99.90
42489;DHT22;28118;52.388;9.452;2022-11-30T11:57:09;6.50;99.90
42489;DHT22;28118;52.388;9.452;2022-11-30T12:10:36;6.30;99.90
42489;DHT22;28118;52.388;9.452;2022-11-30T12:13:31;6.30;99.90
42489;DHT22;28118;52.388;9.452;2022-11-30T12:26:44;6.40;99.90
42489;DHT22;28118;52.388;9.452;2022-11-30T12:32:37;6.30;99.90
42489;DHT22;28118;52.388;9.452;2022-11-30T12:45:46;6.40;99.90
42489;DHT22;28118;52.388;9.452;2022-11-30T12:58:48;6.40;99.90
42489;DHT22;28118;52.388;9.452;2022-11-30T13:04:02;6.40;99.90
42489;DHT22;28118;52.388;9.452;2022-11-30T13:06:37;6.30;99.90
42489;DHT22;28118;52.388;9.452;2022-11-30T13:11:46;6.20;99.90
42489;DHT22;28118;52.388;9.452;2022-11-30T13:14:20;6.30;99.90
42489;DHT22;28118;52.388;9.452;2022-11-30T13:16:53;6.30;99.90
42489;DHT22;28118;52.388;9.452;2022-11-30T13:22:23;6.40;99.90
42489;DHT22;28118;52.388;9.452;2022-11-30T13:36:33;6.40;99.90
42489;DHT22;28118;52.388;9.452;2022-11-30T13:41:45;6.40;99.90
42489;DHT22;28118;52.388;9.452;2022-11-30T13:46:51;6.40;99.90
42489;DHT22;28118;52.388;9.452;2022-11-30T13:49:26;6.40;99.90
42489;DHT22;28118;52.388;9.452;2022-11-30T13:51:53;6.30;99.90
42489;DHT22;28118;52.388;9.452;2022-11-30T13:54:50;6.30;99.90
42489;DHT22;28118;52.388;9.452;2022-11-30T13:59:58;6.40;99.90
42489;DHT22;28118;52.388;9.452;2022-11-30T14:10:28;6.30;99.90
42489;DHT22;28118;52.388;9.452;2022-11-30T14:12:58;6.30;99.90
42489;DHT22;28118;52.388;9.452;2022-11-30T14:25:55;6.10;99.90
42489;DHT22;28118;52.388;9.452;2022-11-30T14:28:33;6.10;99.90
42489;DHT22;28118;52.388;9.452;2022-11-30T14:31:01;6.20;99.90
42489;DHT22;28118;52.388;9.452;2022-11-30T14:36:07;6.20;99.90
42489;DHT22;28118;52.388;9.452;2022-11-30T14:38:40;6.10;99.90
42489;DHT22;28118;52.388;9.452;2022-11-30T14:41:27;6.10;99.90
42489;DHT22;28118;52.388;9.452;2022-11-30T14:43:59;6.00;99.90
42489;DHT22;28118;52.388;9.452;2022-11-30T14:46:26;6.00;99.90
42489;DHT22;28118;52.388;9.452;2022-11-30T14:51:46;6.00;99.90
42489;DHT22;28118;52.388;9.452;2022-11-30T14:57:33;6.00;99.90
42489;DHT22;28118;52.388;9.452;2022-11-30T15:00:04;6.00;99.90
42489;DHT22;28118;52.388;9.452;2022-11-30T15:02:35;6.00;99.90
42489;DHT22;28118;52.388;9.452;2022-11-30T15:05:05;6.00;99.90
42489;DHT22;28118;52.388;9.452;2022-11-30T15:07:34;6.00;99.90
42489;DHT22;28118;52.388;9.452;2022-11-30T15:10:10;6.00;99.90
42489;DHT22;28118;52.388;9.452;2022-11-30T15:12:39;6.00;99.90
42489;DHT22;28118;52.388;9.452;2022-11-30T15:15:25;6.00;99.90
42489;DHT22;28118;52.388;9.452;2022-11-30T15:20:30;5.90;99.90
42489;DHT22;28118;52.388;9.452;2022-11-30T15:23:01;6.00;99.90
42489;DHT22;28118;52.388;9.452;2022-11-30T15:25:36;5.90;99.90
42489;DHT22;28118;52.388;9.452;2022-11-30T15:28:06;5.90;99.90
42489;DHT22;28118;52.388;9.452;2022-11-30T15:30:35;6.00;99.90
42489;DHT22;28118;52.388;9.452;2022-11-30T15:33:03;6.00;99.90
42489;DHT22;28118;52.388;9.452;2022-11-30T15:35:30;5.90;99.90
42489;DHT22;28118;52.388;9.452;2022-11-30T15:38:23;5.80;99.90
42489;DHT22;28118;52.388;9.452;2022-11-30T15:40:50;5.90;99.90
42489;DHT22;28118;52.388;9.452;2022-11-30T15:43:23;5.80;99.90
42489;DHT22;28118;52.388;9.452;2022-11-30T15:45:53;5.80;99.90
42489;DHT22;28118;52.388;9.452;2022-11-30T15:48:46;5.80;99.90
42489;DHT22;28118;52.388;9.452;2022-11-30T15:51:22;5.80;99.90
42489;DHT22;28118;52.388;9.452;2022-11-30T15:53:50;5.80;99.90
42489;DHT22;28118;52.388;9.452;2022-11-30T15:56:26;5.80;99.90
42489;DHT22;28118;52.388;9.452;2022-11-30T15:59:20;5.80;99.90
42489;DHT22;28118;52.388;9.452;2022-11-30T16:01:55;5.80;99.90
42489;DHT22;28118;52.388;9.452;2022-11-30T16:07:37;5.80;99.90
42489;DHT22;28118;52.388;9.452;2022-11-30T16:12:42;5.80;99.90
42489;DHT22;28118;52.388;9.452;2022-11-30T16:15:24;5.80;99.90
42489;DHT22;28118;52.388;9.452;2022-11-30T16:17:55;5.80;99.90
42489;DHT22;28118;52.388;9.452;2022-11-30T16:20:22;5.80;99.90
42489;DHT22;28118;52.388;9.452;2022-11-30T16:22:50;5.80;99.90
42489;DHT22;28118;52.388;9.452;2022-11-30T16:25:20;5.80;99.90
42489;DHT22;28118;52.388;9.452;2022-11-30T16:27:47;5.80;99.90
42489;DHT22;28118;52.388;9.452;2022-11-30T16:30:16;5.80;99.90
42489;DHT22;28118;52.388;9.452;2022-11-30T16:32:43;5.70;99.90
42489;DHT22;28118;52.388;9.452;2022-11-30T16:35:22;5.70;99.90
42489;DHT22;28118;52.388;9.452;2022-11-30T16:37:50;5.70;99.90
42489;DHT22;28118;52.388;9.452;2022-11-30T16:40:17;5.70;99.90
42489;DHT22;28118;52.388;9.452;2022-11-30T16:42:44;5.70;99.90
42489;DHT22;28118;52.388;9.452;2022-11-30T16:45:14;5.70;99.90
42489;DHT22;28118;52.388;9.452;2022-11-30T16:47:42;5.70;99.90
42489;DHT22;28118;52.388;9.452;2022-11-30T16:50:11;5.70;99.90
42489;DHT22;28118;52.388;9.452;2022-11-30T16:52:38;5.70;99.90
42489;DHT22;28118;52.388;9.452;2022-11-30T16:55:20;5.70;99.90
42489;DHT22;28118;52.388;9.452;2022-11-30T16:57:47;5.70;99.90
42489;DHT22;28118;52.388;9.452;2022-11-30T17:00:17;5.70;99.90
42489;DHT22;28118;52.388;9.452;2022-11-30T17:02:54;5.70;99.90
42489;DHT22;28118;52.388;9.452;2022-11-30T17:05:22;5.70;99.90
42489;DHT22;28118;52.388;9.452;2022-11-30T17:07:49;5.80;99.90
42489;DHT22;28118;52.388;9.452;2022-11-30T17:10:16;5.70;99.90
42489;DHT22;28118;52.388;9.452;2022-11-30T17:12:43;5.70;99.90
42489;DHT22;28118;52.388;9.452;2022-11-30T17:15:16;5.70;99.90
42489;DHT22;28118;52.388;9.452;2022-11-30T17:17:43;5.70;99.90
42489;DHT22;28118;52.388;9.452;2022-11-30T17:20:12;5.70;99.90
42489;DHT22;28118;52.388;9.452;2022-11-30T17:22:39;5.70;99.90
42489;DHT22;28118;52.388;9.452;2022-11-30T17:25:09;5.70;99.90
42489;DHT22;28118;52.388;9.452;2022-11-30T17:27:36;5.70;99.90
42489;DHT22;28118;52.388;9.452;2022-11-30T17:30:04;5.70;99.90
42489;DHT22;28118;52.388;9.452;2022-11-30T17:32:30;5.70;99.90
42489;DHT22;28118;52.388;9.452;2022-11-30T17:34:57;5.70;99.90
42489;DHT22;28118;52.388;9.452;2022-11-30T17:37:23;5.70;99.90
42489;DHT22;28118;52.388;9.452;2022-11-30T17:39:50;5.70;99.90
42489;DHT22;28118;52.388;9.452;2022-11-30T17:42:17;5.70;99.90
42489;DHT22;28118;52.388;9.452;2022-11-30T17:44:43;5.70;99.90
42489;DHT22;28118;52.388;9.452;2022-11-30T17:47:11;5.60;99.90
42489;DHT22;28118;52.388;9.452;2022-11-30T17:49:37;5.60;99.90
42489;DHT22;28118;52.388;9.452;2022-11-30T17:52:05;5.60;99.90
42489;DHT22;28118;52.388;9.452;2022-11-30T17:54:32;5.60;99.90
42489;DHT22;28118;52.388;9.452;2022-11-30T17:56:58;5.60;99.90
42489;DHT22;28118;52.388;9.452;2022-11-30T17:59:25;5.60;99.90
42489;DHT22;28118;52.388;9.452;2022-11-30T18:01:52;5.60;99.90
42489;DHT22;28118;52.388;9.452;2022-11-30T18:04:18;5.50;99.90
42489;DHT22;28118;52.388;9.452;2022-11-30T18:06:45;5.60;99.90
42489;DHT22;28118;52.388;9.452;2022-11-30T18:09:12;5.60;99.90
42489;DHT22;28118;52.388;9.452;2022-11-30T18:11:38;5.60;99.90
42489;DHT22;28118;52.388;9.452;2022-11-30T18:14:05;5.50;99.90
42489;DHT22;28118;52.388;9.452;2022-11-30T18:16:34;5.60;99.90
42489;DHT22;28118;52.388;9.452;2022-11-30T18:19:03;5.60;99.90
42489;DHT22;28118;52.388;9.452;2022-11-30T18:21:39;5.60;99.90
42489;DHT22;28118;52.388;9.452;2022-11-30T18:24:06;5.60;99.90
42489;DHT22;28118;52.388;9.452;2022-11-30T18:26:33;5.60;99.90
42489;DHT22;28118;52.388;9.452;2022-11-30T18:29:01;5.60;99.90
42489;DHT22;28118;52.388;9.452;2022-11-30T18:31:29;5.60;99.90
42489;DHT22;28118;52.388;9.452;2022-11-30T18:34:01;5.60;99.90
42489;DHT22;28118;52.388;9.452;2022-11-30T18:36:28;5.60;99.90
42489;DHT22;28118;52.388;9.452;2022-11-30T18:38:56;5.60;99.90
42489;DHT22;28118;52.388;9.452;2022-11-30T18:41:22;5.60;99.90
42489;DHT22;28118;52.388;9.452;2022-11-30T18:43:52;5.60;99.90
42489;DHT22;28118;52.388;9.452;2022-11-30T18:46:19;5.60;99.90
42489;DHT22;28118;52.388;9.452;2022-11-30T18:48:49;5.60;99.90
42489;DHT22;28118;52.388;9.452;2022-11-30T18:51:25;5.60;99.90